createdAt,value
2023-04-09T00:01:04.845Z,60.63
2023-04-09T00:03:32.360Z,59.93
2023-04-09T00:05:59.591Z,54.00
2023-04-09T00:08:26.901Z,58.67
2023-04-09T00:10:54.580Z,63.70
2023-04-09T00:13:35.436Z,52.17
2023-04-09T00:16:07.114Z,57.00
2023-04-09T00:18:34.380Z,54.67
2023-04-09T00:21:01.439Z,58.00
2023-04-09T00:23:28.466Z,67.27
2023-04-09T00:25:55.555Z,62.97
2023-04-09T00:28:22.619Z,62.40
2023-04-09T00:30:49.694Z,59.90
2023-04-09T00:33:18.125Z,60.73
2023-04-09T00:35:45.336Z,63.47
2023-04-09T00:38:12.510Z,73.13
2023-04-09T00:40:39.567Z,54.90
2023-04-09T00:43:06.679Z,67.70
2023-04-09T00:45:33.890Z,66.43
2023-04-09T00:48:01.471Z,66.37
2023-04-09T00:50:30.012Z,63.77
2023-04-09T00:52:57.164Z,62.53
2023-04-09T00:55:24.461Z,62.57
2023-04-09T00:57:51.533Z,69.97
2023-04-09T01:00:18.912Z,66.80
2023-04-09T01:02:46.430Z,62.17
2023-04-09T01:05:13.955Z,57.87
2023-04-09T01:07:55.169Z,57.20
2023-04-09T01:10:39.159Z,67.33
2023-04-09T01:13:08.676Z,70.70
2023-04-09T01:15:37.984Z,63.57
2023-04-09T01:18:10.636Z,70.00
2023-04-09T01:20:40.209Z,64.77
2023-04-09T01:23:19.537Z,61.67
2023-04-09T01:25:54.284Z,64.50
2023-04-09T01:28:24.278Z,61.37
2023-04-09T01:30:54.193Z,75.07
2023-04-09T01:33:21.887Z,68.87
2023-04-09T01:35:50.145Z,67.70
2023-04-09T01:38:18.954Z,60.97
2023-04-09T01:40:46.545Z,67.60
2023-04-09T01:43:14.029Z,64.37
2023-04-09T01:45:43.484Z,63.50
2023-04-09T01:48:10.793Z,71.53
2023-04-09T01:50:37.994Z,63.77
2023-04-09T01:53:05.110Z,69.77
2023-04-09T01:55:32.460Z,61.07
2023-04-09T01:57:59.587Z,60.23
2023-04-09T02:00:31.520Z,58.93
2023-04-09T02:03:05.788Z,62.77
2023-04-09T02:05:35.002Z,61.87
2023-04-09T02:08:03.739Z,56.53
2023-04-09T02:10:31.396Z,60.23
2023-04-09T02:12:58.741Z,49.73
2023-04-09T02:15:26.747Z,46.00
2023-04-09T02:17:53.841Z,53.10
2023-04-09T02:20:22.255Z,54.63
2023-04-09T02:22:49.292Z,45.93
2023-04-09T02:25:16.331Z,53.07
2023-04-09T02:27:43.383Z,49.30
2023-04-09T02:30:10.672Z,50.90
2023-04-09T02:32:37.903Z,47.43
2023-04-09T02:35:05.300Z,43.23
2023-04-09T02:37:33.699Z,41.97
2023-04-09T02:40:00.748Z,45.37
2023-04-09T02:42:28.075Z,44.20
2023-04-09T02:44:55.164Z,40.90
2023-04-09T02:47:23.181Z,42.73
2023-04-09T02:49:50.264Z,44.50
2023-04-09T02:52:17.859Z,45.33
2023-04-09T02:54:46.340Z,46.20
2023-04-09T02:57:13.383Z,45.43
2023-04-09T02:59:40.481Z,41.10
2023-04-09T03:02:07.621Z,43.23
2023-04-09T03:04:34.869Z,50.17
2023-04-09T03:07:01.974Z,49.93
2023-04-09T03:09:29.039Z,50.83
2023-04-09T03:11:57.468Z,49.17
2023-04-09T03:14:24.576Z,53.97
2023-04-09T03:16:51.661Z,46.10
2023-04-09T03:19:19.068Z,47.67
2023-04-09T03:21:46.118Z,43.83
2023-04-09T03:24:13.689Z,51.13
2023-04-09T03:26:41.383Z,48.83
2023-04-09T03:29:10.187Z,44.60
2023-04-09T03:31:37.283Z,51.13
2023-04-09T03:34:04.418Z,46.73
2023-04-09T03:36:34.092Z,49.60
2023-04-09T03:39:03.304Z,54.33
2023-04-09T03:41:36.679Z,48.47
2023-04-09T03:44:07.022Z,46.67
2023-04-09T03:46:45.995Z,43.00
2023-04-09T03:49:16.604Z,43.30
2023-04-09T03:51:45.088Z,48.47
2023-04-09T03:54:12.950Z,38.03
2023-04-09T03:56:41.024Z,46.70
2023-04-09T03:59:11.250Z,51.30
2023-04-09T04:01:41.333Z,42.10
2023-04-09T04:04:10.731Z,47.83
2023-04-09T04:06:44.123Z,45.13
2023-04-09T04:09:29.847Z,53.10
2023-04-09T04:12:07.724Z,46.20
2023-04-09T04:14:54.959Z,47.23
2023-04-09T04:17:29.119Z,50.63
2023-04-09T04:19:57.724Z,47.50
2023-04-09T04:22:26.214Z,52.13
2023-04-09T04:24:56.242Z,40.07
2023-04-09T04:27:23.929Z,48.73
2023-04-09T04:29:51.593Z,44.70
2023-04-09T04:32:36.857Z,48.10
2023-04-09T04:35:09.927Z,47.60
2023-04-09T04:37:37.850Z,42.57
2023-04-09T04:40:06.351Z,46.80
2023-04-09T04:42:37.432Z,46.80
2023-04-09T04:45:10.659Z,48.40
2023-04-09T04:47:43.509Z,40.13
2023-04-09T04:50:12.251Z,44.93
2023-04-09T04:52:51.962Z,47.47
2023-04-09T04:55:20.971Z,38.23
2023-04-09T04:57:50.936Z,45.20
2023-04-09T05:00:18.510Z,49.77
2023-04-09T05:02:46.046Z,45.63
2023-04-09T05:05:21.580Z,55.77
2023-04-09T05:07:52.997Z,44.77
2023-04-09T05:10:20.906Z,47.30
2023-04-09T05:12:48.084Z,49.00
2023-04-09T05:15:22.951Z,56.50
2023-04-09T05:17:50.124Z,52.13
2023-04-09T05:20:17.777Z,48.03
2023-04-09T05:22:57.014Z,44.03
2023-04-09T05:25:30.311Z,46.47
2023-04-09T05:27:58.027Z,49.70
2023-04-09T05:30:26.294Z,40.47
2023-04-09T05:32:54.404Z,54.57
2023-04-09T05:35:24.675Z,48.33
2023-04-09T05:37:51.795Z,49.27
2023-04-09T05:40:20.497Z,43.20
2023-04-09T05:42:47.647Z,44.37
2023-04-09T05:45:25.303Z,47.87
2023-04-09T05:47:53.706Z,38.20
2023-04-09T05:50:23.036Z,45.77
2023-04-09T05:52:52.971Z,41.57
2023-04-09T05:55:22.564Z,38.57
2023-04-09T05:57:54.968Z,46.93
2023-04-09T06:00:22.403Z,42.63
2023-04-09T06:02:50.876Z,37.37
2023-04-09T06:05:18.064Z,39.67
2023-04-09T06:07:46.800Z,37.03
2023-04-09T06:10:14.684Z,36.13
2023-04-09T06:12:43.484Z,36.10
2023-04-09T06:15:10.999Z,37.07
2023-04-09T06:17:38.063Z,35.53
2023-04-09T06:20:05.517Z,28.60
2023-04-09T06:22:32.686Z,29.83
2023-04-09T06:25:00.183Z,34.40
2023-04-09T06:27:27.184Z,28.97
2023-04-09T06:29:55.525Z,29.70
2023-04-09T06:32:22.614Z,26.43
2023-04-09T06:34:49.730Z,25.93
2023-04-09T06:37:16.800Z,26.87
2023-04-09T06:39:47.707Z,27.23
2023-04-09T06:42:27.338Z,23.97
2023-04-09T06:45:08.460Z,24.37
2023-04-09T06:47:35.646Z,25.90
2023-04-09T06:50:02.722Z,22.83
2023-04-09T06:52:29.859Z,23.13
2023-04-09T06:54:56.916Z,20.20
2023-04-09T06:57:24.043Z,24.17
2023-04-09T06:59:51.070Z,21.47
2023-04-09T07:02:19.608Z,19.53
2023-04-09T07:04:46.886Z,20.83
2023-04-09T07:07:14.258Z,21.87
2023-04-09T07:09:41.320Z,22.07
2023-04-09T07:12:08.464Z,21.20
2023-04-09T07:14:35.535Z,20.37
2023-04-09T07:17:02.617Z,19.13
2023-04-09T07:19:31.032Z,22.83
2023-04-09T07:21:58.202Z,22.10
2023-04-09T07:24:25.354Z,17.57
2023-04-09T07:26:52.689Z,23.07
2023-04-09T07:29:19.846Z,21.70
2023-04-09T07:31:46.983Z,22.70
2023-04-09T07:34:14.088Z,22.03
2023-04-09T07:36:42.856Z,17.83
2023-04-09T07:39:10.080Z,20.37
2023-04-09T07:41:37.172Z,18.13
2023-04-09T07:44:04.341Z,20.50
2023-04-09T07:46:31.521Z,15.37
2023-04-09T07:48:58.620Z,21.97
2023-04-09T07:51:25.782Z,16.13
2023-04-09T07:53:54.144Z,18.63
2023-04-09T07:56:21.191Z,19.57
2023-04-09T07:58:48.241Z,17.33
2023-04-09T08:01:15.339Z,18.50
2023-04-09T08:03:42.544Z,16.10
2023-04-09T08:06:09.740Z,19.30
2023-04-09T08:08:36.768Z,15.80
2023-04-09T08:11:05.604Z,14.33
2023-04-09T08:13:32.675Z,15.60
2023-04-09T08:16:00.930Z,15.33
2023-04-09T08:18:28.014Z,18.07
2023-04-09T08:20:55.059Z,12.60
2023-04-09T08:23:22.169Z,13.53
2023-04-09T08:25:49.254Z,13.30
2023-04-09T08:28:17.650Z,13.33
2023-04-09T08:30:44.709Z,14.67
2023-04-09T08:33:11.783Z,10.20
2023-04-09T08:35:38.862Z,13.60
2023-04-09T08:38:05.909Z,12.87
2023-04-09T08:40:34.922Z,15.20
2023-04-09T08:43:04.701Z,16.03
2023-04-09T08:45:33.325Z,13.53
2023-04-09T08:48:00.702Z,14.23
2023-04-09T08:50:27.980Z,13.57
2023-04-09T08:52:55.139Z,15.50
2023-04-09T08:55:22.502Z,12.43
2023-04-09T08:57:49.572Z,13.03
2023-04-09T09:00:16.651Z,13.77
2023-04-09T09:02:58.782Z,11.10
2023-04-09T09:05:35.695Z,8.50
2023-04-09T09:08:02.788Z,10.73
2023-04-09T09:10:37.786Z,10.00
2023-04-09T09:13:16.362Z,10.60
2023-04-09T09:15:43.585Z,11.63
2023-04-09T09:18:10.710Z,9.70
2023-04-09T09:20:39.129Z,9.17
2023-04-09T09:23:06.192Z,8.70
2023-04-09T09:25:38.156Z,8.30
2023-04-09T09:28:08.941Z,9.77
2023-04-09T09:30:37.106Z,8.10
2023-04-09T09:33:08.487Z,8.73
2023-04-09T09:35:49.729Z,7.50
2023-04-09T09:38:16.964Z,7.90
2023-04-09T09:40:44.119Z,6.23
2023-04-09T09:43:12.291Z,7.03
2023-04-09T09:45:41.177Z,9.70
2023-04-09T09:48:08.700Z,7.43
2023-04-09T09:50:36.087Z,8.27
2023-04-09T09:53:05.365Z,7.43
2023-04-09T09:55:33.023Z,6.83
2023-04-09T09:58:01.866Z,6.03
2023-04-09T10:00:29.477Z,8.80
2023-04-09T10:02:57.690Z,9.20
2023-04-09T10:05:25.003Z,9.13
2023-04-09T10:07:52.346Z,8.37
2023-04-09T10:10:20.941Z,6.77
2023-04-09T10:12:48.048Z,7.40
2023-04-09T10:15:15.195Z,7.23
2023-04-09T10:17:42.326Z,7.47
2023-04-09T10:20:11.770Z,7.07
2023-04-09T10:22:39.072Z,8.20
2023-04-09T10:25:06.676Z,8.80
2023-04-09T10:27:35.118Z,8.30
2023-04-09T10:30:02.255Z,10.27
2023-04-09T10:32:35.161Z,8.37
2023-04-09T10:35:03.398Z,9.57
2023-04-09T10:37:30.485Z,9.27
2023-04-09T10:39:57.600Z,7.90
2023-04-09T10:42:26.718Z,7.30
2023-04-09T10:45:09.262Z,7.40
2023-04-09T10:47:37.017Z,7.07
2023-04-09T10:50:17.256Z,6.83
2023-04-09T10:52:44.654Z,8.60
2023-04-09T10:55:30.261Z,8.57
2023-04-09T10:57:57.401Z,7.07
2023-04-09T11:00:25.804Z,7.10
2023-04-09T11:03:02.006Z,7.20
2023-04-09T11:05:32.775Z,7.70
2023-04-09T11:08:04.694Z,6.60
2023-04-09T11:10:31.921Z,7.63
2023-04-09T11:12:58.946Z,6.80
2023-04-09T11:15:27.455Z,8.60
2023-04-09T11:17:54.582Z,7.03
2023-04-09T11:20:22.589Z,6.50
2023-04-09T11:22:49.945Z,6.93
2023-04-09T11:25:20.339Z,6.83
2023-04-09T11:27:47.420Z,8.43
2023-04-09T11:30:14.824Z,8.00
2023-04-09T11:32:43.234Z,7.23
2023-04-09T11:35:13.962Z,8.40
2023-04-09T11:37:41.498Z,8.40
2023-04-09T11:40:08.995Z,8.47
2023-04-09T11:42:36.048Z,7.33
2023-04-09T11:45:04.031Z,7.00
2023-04-09T11:47:32.040Z,7.53
2023-04-09T11:50:00.568Z,6.73
2023-04-09T11:52:27.824Z,8.00
2023-04-09T11:54:54.890Z,6.80
2023-04-09T11:57:22.031Z,10.40
2023-04-09T11:59:49.096Z,7.63
2023-04-09T12:02:18.421Z,7.80
2023-04-09T12:04:49.839Z,7.17
2023-04-09T12:07:18.391Z,7.80
2023-04-09T12:09:48.944Z,6.90
2023-04-09T12:12:19.078Z,8.37
2023-04-09T12:14:46.426Z,8.77
2023-04-09T12:17:13.525Z,7.83
2023-04-09T12:19:40.580Z,6.93
2023-04-09T12:22:07.580Z,8.30
2023-04-09T12:24:35.916Z,7.27
2023-04-09T12:27:02.954Z,7.70
2023-04-09T12:29:29.983Z,7.70
2023-04-09T12:31:57.027Z,9.10
2023-04-09T12:34:24.195Z,7.03
2023-04-09T12:36:51.217Z,7.10
2023-04-09T12:39:18.233Z,9.53
2023-04-09T12:41:46.687Z,7.53
2023-04-09T12:44:13.719Z,8.83
2023-04-09T12:46:40.764Z,7.13
2023-04-09T12:49:07.835Z,7.10
2023-04-09T12:51:34.924Z,8.03
2023-04-09T12:54:02.004Z,6.30
2023-04-09T12:56:29.871Z,7.93
2023-04-09T12:58:58.293Z,6.73
2023-04-09T13:01:25.431Z,6.60
2023-04-09T13:03:52.942Z,6.20
2023-04-09T13:06:20.323Z,6.67
2023-04-09T13:08:47.399Z,6.70
2023-04-09T13:11:14.482Z,7.13
2023-04-09T13:13:42.656Z,7.17
2023-04-09T13:16:11.133Z,5.90
2023-04-09T13:18:38.200Z,5.73
2023-04-09T13:21:05.334Z,5.67
2023-04-09T13:23:32.416Z,6.97
2023-04-09T13:25:59.496Z,5.53
2023-04-09T13:28:26.539Z,7.30
2023-04-09T13:30:53.598Z,5.80
2023-04-09T13:33:21.972Z,6.63
2023-04-09T13:35:49.117Z,5.17
2023-04-09T13:38:16.207Z,5.57
2023-04-09T13:40:43.305Z,6.30
2023-04-09T13:43:10.347Z,6.30
2023-04-09T13:45:37.433Z,5.57
2023-04-09T13:48:04.666Z,6.23
2023-04-09T13:50:33.082Z,6.80
2023-04-09T13:53:00.115Z,7.80
2023-04-09T13:55:27.218Z,5.70
2023-04-09T13:57:54.302Z,8.20
2023-04-09T14:00:21.377Z,7.13
2023-04-09T14:02:48.545Z,5.07
2023-04-09T14:05:15.675Z,6.00
2023-04-09T14:07:44.165Z,5.70
2023-04-09T14:10:11.544Z,5.90
2023-04-09T14:12:38.567Z,6.33
2023-04-09T14:15:06.178Z,5.77
2023-04-09T14:17:33.286Z,6.50
2023-04-09T14:20:00.309Z,5.30
2023-04-09T14:22:28.049Z,5.73
2023-04-09T14:24:56.424Z,6.60
2023-04-09T14:27:23.495Z,7.23
2023-04-09T14:29:51.213Z,5.90
2023-04-09T14:32:18.290Z,7.00
2023-04-09T14:34:45.330Z,5.50
2023-04-09T14:37:12.396Z,6.27
2023-04-09T14:39:39.419Z,6.00
2023-04-09T14:42:07.830Z,6.23
2023-04-09T14:44:34.885Z,6.63
2023-04-09T14:47:02.088Z,6.07
2023-04-09T14:49:29.330Z,5.90
2023-04-09T14:51:56.356Z,5.83
2023-04-09T14:54:23.387Z,6.43
2023-04-09T14:56:50.510Z,6.10
2023-04-09T14:59:19.021Z,5.27
2023-04-09T15:01:46.230Z,6.10
2023-04-09T15:04:13.480Z,5.43
2023-04-09T15:06:40.584Z,7.17
2023-04-09T15:09:07.646Z,6.07
2023-04-09T15:11:34.671Z,5.20
2023-04-09T15:14:01.755Z,6.87
2023-04-09T15:16:30.297Z,5.07
2023-04-09T15:18:57.349Z,6.90
2023-04-09T15:21:24.603Z,5.20
2023-04-09T15:23:51.964Z,6.33
2023-04-09T15:26:19.111Z,6.20
2023-04-09T15:28:46.213Z,5.20
2023-04-09T15:31:13.348Z,5.50
2023-04-09T15:33:43.289Z,7.37
2023-04-09T15:36:10.418Z,7.83
2023-04-09T15:38:37.534Z,6.10
2023-04-09T15:41:05.507Z,6.43
2023-04-09T15:43:32.582Z,6.17
2023-04-09T15:45:59.696Z,5.90
2023-04-09T15:48:26.870Z,7.70
2023-04-09T15:50:55.259Z,5.90
2023-04-09T15:53:22.324Z,5.70
2023-04-09T15:55:49.387Z,8.37
2023-04-09T15:58:16.423Z,8.57
2023-04-09T16:00:43.488Z,7.00
2023-04-09T16:03:11.726Z,7.27
2023-04-09T16:05:39.404Z,5.30
2023-04-09T16:08:07.804Z,5.73
2023-04-09T16:10:34.893Z,5.33
2023-04-09T16:13:01.974Z,5.13
2023-04-09T16:15:29.074Z,6.40
2023-04-09T16:17:56.209Z,7.93
2023-04-09T16:20:23.307Z,6.10
2023-04-09T16:22:50.365Z,5.70
2023-04-09T16:25:18.868Z,5.23
2023-04-09T16:27:45.871Z,4.90
2023-04-09T16:30:13.625Z,5.63
2023-04-09T16:32:40.680Z,5.70
2023-04-09T16:35:07.998Z,5.30
2023-04-09T16:37:35.083Z,4.80
2023-04-09T16:40:02.242Z,4.90
2023-04-09T16:42:30.663Z,4.87
2023-04-09T16:44:57.744Z,5.43
2023-04-09T16:47:24.802Z,5.07
2023-04-09T16:49:51.929Z,6.00
2023-04-09T16:52:19.144Z,4.10
2023-04-09T16:54:46.265Z,5.70
2023-04-09T16:57:13.339Z,5.03
2023-04-09T16:59:41.723Z,5.20
2023-04-09T17:02:08.866Z,5.43
2023-04-09T17:04:35.946Z,5.67
2023-04-09T17:07:02.967Z,5.47
2023-04-09T17:09:30.528Z,4.73
2023-04-09T17:11:57.563Z,4.53
2023-04-09T17:14:24.604Z,4.73
2023-04-09T17:16:53.008Z,4.80
2023-04-09T17:19:20.123Z,4.50
2023-04-09T17:21:47.176Z,4.63
2023-04-09T17:24:14.248Z,5.00
2023-04-09T17:26:41.260Z,5.17
2023-04-09T17:29:08.332Z,5.07
2023-04-09T17:31:35.390Z,6.10
2023-04-09T17:34:03.785Z,7.47
2023-04-09T17:36:30.980Z,3.80
2023-04-09T17:38:58.067Z,4.00
2023-04-09T17:41:25.466Z,5.00
2023-04-09T17:43:52.502Z,3.97
2023-04-09T17:46:19.606Z,6.87
2023-04-09T17:48:46.788Z,3.93
2023-04-09T17:51:17.434Z,5.10
2023-04-09T17:53:44.848Z,4.57
2023-04-09T17:56:15.695Z,3.97
2023-04-09T17:58:42.791Z,4.80
2023-04-09T18:01:10.163Z,5.00
2023-04-09T18:03:37.721Z,5.40
2023-04-09T18:06:05.275Z,5.70
2023-04-09T18:08:33.654Z,5.20
2023-04-09T18:11:12.048Z,4.60
2023-04-09T18:13:40.522Z,5.20
2023-04-09T18:16:09.047Z,4.57
2023-04-09T18:18:36.119Z,5.23
2023-04-09T18:21:03.157Z,5.73
2023-04-09T18:23:30.210Z,5.20
2023-04-09T18:25:58.772Z,6.23
2023-04-09T18:28:25.859Z,4.90
2023-04-09T18:30:52.972Z,4.70
2023-04-09T18:33:20.101Z,5.83
2023-04-09T18:35:47.195Z,4.40
2023-04-09T18:38:14.284Z,5.57
2023-04-09T18:40:41.561Z,6.43
2023-04-09T18:43:10.499Z,6.10
2023-04-09T18:45:37.662Z,6.23
2023-04-09T18:48:04.966Z,5.60
2023-04-09T18:50:32.132Z,5.30
2023-04-09T18:52:59.302Z,5.60
2023-04-09T18:55:26.398Z,9.67
2023-04-09T18:57:53.428Z,4.40
2023-04-09T19:00:21.858Z,5.00
2023-04-09T19:02:49.043Z,6.10
2023-04-09T19:05:16.284Z,5.60
2023-04-09T19:07:43.379Z,7.07
2023-04-09T19:10:10.872Z,5.63
2023-04-09T19:12:38.164Z,4.97
2023-04-09T19:15:05.533Z,6.00
2023-04-09T19:17:33.979Z,7.90
2023-04-09T19:20:01.154Z,6.60
2023-04-09T19:22:28.253Z,5.40
2023-04-09T19:24:55.287Z,5.03
2023-04-09T19:27:22.580Z,5.90
2023-04-09T19:29:49.621Z,7.20
2023-04-09T19:32:16.715Z,5.90
2023-04-09T19:34:45.172Z,6.50
2023-04-09T19:37:12.285Z,7.47
2023-04-09T19:39:39.380Z,5.20
2023-04-09T19:42:06.484Z,6.43
2023-04-09T19:44:33.572Z,6.17
2023-04-09T19:47:00.657Z,7.47
2023-04-09T19:49:27.763Z,8.53
2023-04-09T19:51:56.267Z,5.90
2023-04-09T19:54:23.404Z,7.23
2023-04-09T19:56:50.485Z,6.07
2023-04-09T19:59:17.562Z,9.43
2023-04-09T20:01:44.707Z,8.30
2023-04-09T20:04:11.918Z,9.80
2023-04-09T20:06:39.020Z,7.60
2023-04-09T20:09:07.402Z,8.47
2023-04-09T20:11:34.485Z,8.17
2023-04-09T20:14:01.592Z,10.20
2023-04-09T20:16:28.683Z,9.10
2023-04-09T20:18:55.918Z,8.10
2023-04-09T20:21:23.017Z,7.97
2023-04-09T20:23:50.040Z,7.63
2023-04-09T20:26:18.479Z,8.03
2023-04-09T20:28:45.537Z,9.50
2023-04-09T20:31:12.612Z,8.80
2023-04-09T20:33:39.724Z,6.37
2023-04-09T20:36:14.025Z,7.43
2023-04-09T20:38:41.121Z,7.33
2023-04-09T20:41:08.199Z,7.87
2023-04-09T20:43:36.599Z,7.47
2023-04-09T20:46:03.693Z,9.57
2023-04-09T20:48:30.976Z,6.90
2023-04-09T20:50:58.168Z,9.97
2023-04-09T20:53:25.228Z,5.80
2023-04-09T20:55:52.346Z,7.63
2023-04-09T20:58:19.435Z,6.80
2023-04-09T21:00:47.850Z,8.97
2023-04-09T21:03:15.023Z,7.23
2023-04-09T21:05:42.193Z,8.30
2023-04-09T21:08:09.359Z,10.03
2023-04-09T21:10:36.522Z,8.50
2023-04-09T21:13:03.591Z,8.80
2023-04-09T21:15:30.627Z,7.93
2023-04-09T21:17:59.081Z,8.47
2023-04-09T21:20:26.254Z,17.63
2023-04-09T21:22:53.369Z,9.47
2023-04-09T21:25:20.431Z,9.37
2023-04-09T21:27:47.444Z,10.03
2023-04-09T21:30:14.462Z,9.03
2023-04-09T21:32:41.582Z,9.17
2023-04-09T21:35:10.185Z,10.03
2023-04-09T21:37:37.545Z,7.33
2023-04-09T21:40:04.951Z,8.40
2023-04-09T21:42:31.974Z,8.70
2023-04-09T21:44:59.155Z,6.90
2023-04-09T21:47:26.287Z,8.70
2023-04-09T21:49:53.440Z,10.20
2023-04-09T21:52:21.896Z,8.17
2023-04-09T21:54:49.004Z,8.67
2023-04-09T21:57:16.197Z,7.80
2023-04-09T21:59:43.302Z,9.97
2023-04-09T22:02:10.439Z,10.60
2023-04-09T22:04:37.747Z,9.00
2023-04-09T22:07:04.976Z,9.63
2023-04-09T22:09:33.418Z,8.10
2023-04-09T22:12:00.486Z,9.30
2023-04-09T22:14:27.536Z,7.40
2023-04-09T22:16:54.612Z,9.70
2023-04-09T22:19:21.738Z,7.87
2023-04-09T22:21:48.876Z,9.80
2023-04-09T22:24:15.943Z,8.27
2023-04-09T22:26:44.329Z,10.83
2023-04-09T22:29:11.402Z,9.40
2023-04-09T22:31:38.602Z,9.30
2023-04-09T22:34:19.335Z,15.40
2023-04-09T22:36:47.593Z,11.70
2023-04-09T22:39:14.632Z,8.73
2023-04-09T22:41:41.678Z,7.90
2023-04-09T22:44:10.191Z,10.03
2023-04-09T22:46:37.353Z,9.93
2023-04-09T22:49:05.881Z,9.10
2023-04-09T22:51:33.484Z,11.20
2023-04-09T22:54:00.619Z,12.03
2023-04-09T22:56:27.771Z,12.30
2023-04-09T22:58:55.082Z,10.70
2023-04-09T23:01:23.715Z,9.20
2023-04-09T23:03:51.429Z,9.67
2023-04-09T23:06:18.593Z,8.97
2023-04-09T23:08:45.923Z,8.20
2023-04-09T23:11:13.002Z,11.07
2023-04-09T23:13:40.286Z,10.10
2023-04-09T23:16:08.385Z,10.03
2023-04-09T23:18:37.185Z,10.13
2023-04-09T23:21:04.735Z,9.60
2023-04-09T23:23:31.807Z,10.00
2023-04-09T23:25:58.817Z,8.83
2023-04-09T23:28:25.890Z,8.53
2023-04-09T23:30:52.961Z,10.97
2023-04-09T23:33:20.109Z,8.10
2023-04-09T23:35:48.639Z,7.80
2023-04-09T23:38:15.883Z,7.77
2023-04-09T23:40:42.990Z,9.50
2023-04-09T23:43:10.200Z,7.43
2023-04-09T23:45:37.317Z,10.83
2023-04-09T23:48:06.166Z,9.50
2023-04-09T23:50:33.287Z,9.47
2023-04-09T23:53:01.785Z,9.23
2023-04-09T23:55:28.906Z,9.10
2023-04-09T23:57:55.962Z,8.03
